sensor_id;sensor_type;location;lat;lon;timestamp;P1;durP1;ratioP1;P2;durP2;ratioP2
6985;SDS011;3533;51.246;6.850;2022-08-27T00:00:40;1.53;;;1.40;;
6985;SDS011;3533;51.246;6.850;2022-08-27T00:03:05;1.60;;;1.50;;
6985;SDS011;3533;51.246;6.850;2022-08-27T00:05:31;2.00;;;1.43;;
6985;SDS011;3533;51.246;6.850;2022-08-27T00:07:57;1.43;;;1.33;;
6985;SDS011;3533;51.246;6.850;2022-08-27T00:10:24;1.40;;;1.30;;
6985;SDS011;3533;51.246;6.850;2022-08-27T00:12:51;1.67;;;1.53;;
6985;SDS011;3533;51.246;6.850;2022-08-27T00:15:17;1.53;;;1.43;;
6985;SDS011;3533;51.246;6.850;2022-08-27T00:17:44;1.60;;;1.50;;
6985;SDS011;3533;51.246;6.850;2022-08-27T00:20:13;1.60;;;1.50;;
6985;SDS011;3533;51.246;6.850;2022-08-27T00:22:41;1.50;;;1.40;;
6985;SDS011;3533;51.246;6.850;2022-08-27T00:25:07;1.70;;;1.60;;
6985;SDS011;3533;51.246;6.850;2022-08-27T00:27:33;1.30;;;1.20;;
6985;SDS011;3533;51.246;6.850;2022-08-27T00:29:58;1.77;;;1.63;;
6985;SDS011;3533;51.246;6.850;2022-08-27T00:32:24;1.70;;;1.60;;
6985;SDS011;3533;51.246;6.850;2022-08-27T00:34:50;1.60;;;1.50;;
6985;SDS011;3533;51.246;6.850;2022-08-27T00:37:16;1.73;;;1.60;;
6985;SDS011;3533;51.246;6.850;2022-08-27T00:39:42;1.40;;;1.30;;
6985;SDS011;3533;51.246;6.850;2022-08-27T00:42:07;1.60;;;1.50;;
6985;SDS011;3533;51.246;6.850;2022-08-27T00:44:33;2.30;;;2.20;;
6985;SDS011;3533;51.246;6.850;2022-08-27T00:47:01;1.50;;;1.40;;
6985;SDS011;3533;51.246;6.850;2022-08-27T00:49:36;2.10;;;1.47;;
6985;SDS011;3533;51.246;6.850;2022-08-27T00:52:11;1.53;;;1.40;;
6985;SDS011;3533;51.246;6.850;2022-08-27T00:54:42;1.63;;;1.53;;
6985;SDS011;3533;51.246;6.850;2022-08-27T00:57:08;1.60;;;1.50;;
6985;SDS011;3533;51.246;6.850;2022-08-27T00:59:33;1.77;;;1.40;;
6985;SDS011;3533;51.246;6.850;2022-08-27T01:02:00;1.43;;;1.30;;
6985;SDS011;3533;51.246;6.850;2022-08-27T01:04:55;1.70;;;1.60;;
6985;SDS011;3533;51.246;6.850;2022-08-27T01:07:24;1.50;;;1.40;;
6985;SDS011;3533;51.246;6.850;2022-08-27T01:09:52;1.57;;;1.47;;
6985;SDS011;3533;51.246;6.850;2022-08-27T01:12:21;3.30;;;1.60;;
6985;SDS011;3533;51.246;6.850;2022-08-27T01:14:46;1.67;;;1.57;;
6985;SDS011;3533;51.246;6.850;2022-08-27T01:17:12;1.60;;;1.50;;
6985;SDS011;3533;51.246;6.850;2022-08-27T01:24:59;1.43;;;1.33;;
6985;SDS011;3533;51.246;6.850;2022-08-27T01:27:30;1.80;;;1.60;;
6985;SDS011;3533;51.246;6.850;2022-08-27T01:29:55;1.60;;;1.50;;
6985;SDS011;3533;51.246;6.850;2022-08-27T01:32:25;1.77;;;1.67;;
6985;SDS011;3533;51.246;6.850;2022-08-27T01:34:53;1.70;;;1.57;;
6985;SDS011;3533;51.246;6.850;2022-08-27T01:37:20;1.60;;;1.50;;
6985;SDS011;3533;51.246;6.850;2022-08-27T01:39:46;3.73;;;1.60;;
6985;SDS011;3533;51.246;6.850;2022-08-27T01:47:17;1.70;;;1.60;;
6985;SDS011;3533;51.246;6.850;2022-08-27T01:49:44;1.50;;;1.40;;
6985;SDS011;3533;51.246;6.850;2022-08-27T01:52:11;1.70;;;1.60;;
6985;SDS011;3533;51.246;6.850;2022-08-27T01:54:38;1.70;;;1.60;;
6985;SDS011;3533;51.246;6.850;2022-08-27T01:57:04;1.47;;;1.37;;
6985;SDS011;3533;51.246;6.850;2022-08-27T01:59:30;1.40;;;1.30;;
6985;SDS011;3533;51.246;6.850;2022-08-27T02:01:55;1.80;;;1.70;;
6985;SDS011;3533;51.246;6.850;2022-08-27T02:04:21;1.60;;;1.50;;
6985;SDS011;3533;51.246;6.850;2022-08-27T02:06:47;1.63;;;1.37;;
6985;SDS011;3533;51.246;6.850;2022-08-27T02:09:13;1.30;;;1.20;;
6985;SDS011;3533;51.246;6.850;2022-08-27T02:11:39;1.60;;;1.50;;
6985;SDS011;3533;51.246;6.850;2022-08-27T02:14:04;1.40;;;1.30;;
6985;SDS011;3533;51.246;6.850;2022-08-27T02:16:30;2.00;;;1.80;;
6985;SDS011;3533;51.246;6.850;2022-08-27T02:19:00;1.50;;;1.40;;
6985;SDS011;3533;51.246;6.850;2022-08-27T02:21:26;1.43;;;1.33;;
6985;SDS011;3533;51.246;6.850;2022-08-27T02:23:52;1.70;;;1.60;;
6985;SDS011;3533;51.246;6.850;2022-08-27T02:26:19;1.67;;;1.57;;
6985;SDS011;3533;51.246;6.850;2022-08-27T02:28:45;1.43;;;1.33;;
6985;SDS011;3533;51.246;6.850;2022-08-27T02:31:11;1.67;;;1.40;;
6985;SDS011;3533;51.246;6.850;2022-08-27T02:33:37;1.60;;;1.50;;
6985;SDS011;3533;51.246;6.850;2022-08-27T02:36:02;1.70;;;1.37;;
6985;SDS011;3533;51.246;6.850;2022-08-27T02:38:28;1.77;;;1.50;;
6985;SDS011;3533;51.246;6.850;2022-08-27T02:40:54;2.00;;;1.90;;
6985;SDS011;3533;51.246;6.850;2022-08-27T02:43:19;1.80;;;1.70;;
6985;SDS011;3533;51.246;6.850;2022-08-27T02:45:45;2.53;;;1.50;;
6985;SDS011;3533;51.246;6.850;2022-08-27T02:48:12;2.00;;;1.50;;
6985;SDS011;3533;51.246;6.850;2022-08-27T02:50:37;1.97;;;1.83;;
6985;SDS011;3533;51.246;6.850;2022-08-27T02:53:03;1.73;;;1.63;;
6985;SDS011;3533;51.246;6.850;2022-08-27T02:55:30;1.50;;;1.40;;
6985;SDS011;3533;51.246;6.850;2022-08-27T02:57:57;1.53;;;1.43;;
6985;SDS011;3533;51.246;6.850;2022-08-27T03:00:23;1.50;;;1.40;;
6985;SDS011;3533;51.246;6.850;2022-08-27T03:02:49;1.50;;;1.40;;
6985;SDS011;3533;51.246;6.850;2022-08-27T03:05:16;1.70;;;1.60;;
6985;SDS011;3533;51.246;6.850;2022-08-27T03:07:42;1.50;;;1.40;;
6985;SDS011;3533;51.246;6.850;2022-08-27T03:10:09;2.07;;;1.50;;
6985;SDS011;3533;51.246;6.850;2022-08-27T03:12:36;1.60;;;1.50;;
6985;SDS011;3533;51.246;6.850;2022-08-27T03:15:06;1.50;;;1.40;;
6985;SDS011;3533;51.246;6.850;2022-08-27T03:17:34;1.70;;;1.60;;
6985;SDS011;3533;51.246;6.850;2022-08-27T03:20:18;1.83;;;1.60;;
6985;SDS011;3533;51.246;6.850;2022-08-27T03:22:44;1.50;;;1.40;;
6985;SDS011;3533;51.246;6.850;2022-08-27T03:25:10;1.80;;;1.70;;
6985;SDS011;3533;51.246;6.850;2022-08-27T03:27:36;2.07;;;1.40;;
6985;SDS011;3533;51.246;6.850;2022-08-27T03:30:03;1.80;;;1.70;;
6985;SDS011;3533;51.246;6.850;2022-08-27T03:32:31;1.70;;;1.60;;
6985;SDS011;3533;51.246;6.850;2022-08-27T03:34:57;1.80;;;1.70;;
6985;SDS011;3533;51.246;6.850;2022-08-27T03:37:23;1.53;;;1.43;;
6985;SDS011;3533;51.246;6.850;2022-08-27T03:39:49;1.93;;;1.83;;
6985;SDS011;3533;51.246;6.850;2022-08-27T03:42:14;1.60;;;1.50;;
6985;SDS011;3533;51.246;6.850;2022-08-27T03:44:40;1.70;;;1.60;;
6985;SDS011;3533;51.246;6.850;2022-08-27T03:47:06;1.60;;;1.50;;
6985;SDS011;3533;51.246;6.850;2022-08-27T03:49:31;2.20;;;1.73;;
6985;SDS011;3533;51.246;6.850;2022-08-27T03:51:57;1.73;;;1.63;;
6985;SDS011;3533;51.246;6.850;2022-08-27T03:54:23;1.53;;;1.43;;
6985;SDS011;3533;51.246;6.850;2022-08-27T03:56:49;1.63;;;1.53;;
6985;SDS011;3533;51.246;6.850;2022-08-27T03:59:15;1.60;;;1.50;;
6985;SDS011;3533;51.246;6.850;2022-08-27T04:01:41;1.70;;;1.60;;
6985;SDS011;3533;51.246;6.850;2022-08-27T04:04:07;1.80;;;1.70;;
6985;SDS011;3533;51.246;6.850;2022-08-27T04:06:33;1.70;;;1.60;;
6985;SDS011;3533;51.246;6.850;2022-08-27T04:08:59;1.80;;;1.70;;
6985;SDS011;3533;51.246;6.850;2022-08-27T04:11:25;1.43;;;1.33;;
6985;SDS011;3533;51.246;6.850;2022-08-27T04:13:53;1.57;;;1.47;;
6985;SDS011;3533;51.246;6.850;2022-08-27T04:16:19;1.93;;;1.67;;
6985;SDS011;3533;51.246;6.850;2022-08-27T04:18:44;1.70;;;1.60;;
6985;SDS011;3533;51.246;6.850;2022-08-27T04:21:11;1.90;;;1.80;;
6985;SDS011;3533;51.246;6.850;2022-08-27T04:23:39;1.70;;;1.60;;
6985;SDS011;3533;51.246;6.850;2022-08-27T04:26:06;1.57;;;1.47;;
6985;SDS011;3533;51.246;6.850;2022-08-27T04:28:33;1.80;;;1.70;;
6985;SDS011;3533;51.246;6.850;2022-08-27T04:31:00;1.60;;;1.50;;
6985;SDS011;3533;51.246;6.850;2022-08-27T04:33:26;1.70;;;1.60;;
6985;SDS011;3533;51.246;6.850;2022-08-27T04:36:02;1.60;;;1.50;;
6985;SDS011;3533;51.246;6.850;2022-08-27T04:38:30;2.13;;;1.80;;
6985;SDS011;3533;51.246;6.850;2022-08-27T04:40:56;2.40;;;1.60;;
6985;SDS011;3533;51.246;6.850;2022-08-27T04:43:40;1.80;;;1.70;;
6985;SDS011;3533;51.246;6.850;2022-08-27T04:46:06;1.80;;;1.70;;
6985;SDS011;3533;51.246;6.850;2022-08-27T04:48:32;2.17;;;1.70;;
6985;SDS011;3533;51.246;6.850;2022-08-27T04:50:58;1.70;;;1.60;;
6985;SDS011;3533;51.246;6.850;2022-08-27T04:53:24;1.97;;;1.87;;
6985;SDS011;3533;51.246;6.850;2022-08-27T04:55:51;1.87;;;1.77;;
6985;SDS011;3533;51.246;6.850;2022-08-27T04:58:18;1.77;;;1.67;;
6985;SDS011;3533;51.246;6.850;2022-08-27T05:00:49;2.60;;;1.70;;
6985;SDS011;3533;51.246;6.850;2022-08-27T05:03:19;2.33;;;1.80;;
6985;SDS011;3533;51.246;6.850;2022-08-27T05:05:48;2.00;;;1.90;;
6985;SDS011;3533;51.246;6.850;2022-08-27T05:08:14;2.13;;;2.03;;
6985;SDS011;3533;51.246;6.850;2022-08-27T05:10:42;2.00;;;1.90;;
6985;SDS011;3533;51.246;6.850;2022-08-27T05:13:09;2.30;;;2.10;;
6985;SDS011;3533;51.246;6.850;2022-08-27T05:15:36;2.00;;;1.90;;
6985;SDS011;3533;51.246;6.850;2022-08-27T05:18:02;1.90;;;1.80;;
6985;SDS011;3533;51.246;6.850;2022-08-27T05:20:29;2.13;;;2.03;;
6985;SDS011;3533;51.246;6.850;2022-08-27T05:22:55;2.63;;;2.43;;
6985;SDS011;3533;51.246;6.850;2022-08-27T05:25:22;2.03;;;1.93;;
6985;SDS011;3533;51.246;6.850;2022-08-27T05:27:48;2.20;;;2.00;;
6985;SDS011;3533;51.246;6.850;2022-08-27T05:30:14;2.00;;;1.90;;
6985;SDS011;3533;51.246;6.850;2022-08-27T05:32:40;2.07;;;1.97;;
6985;SDS011;3533;51.246;6.850;2022-08-27T05:35:07;2.40;;;2.30;;
6985;SDS011;3533;51.246;6.850;2022-08-27T05:37:33;2.10;;;2.00;;
6985;SDS011;3533;51.246;6.850;2022-08-27T05:39:59;1.90;;;1.80;;
6985;SDS011;3533;51.246;6.850;2022-08-27T05:42:27;2.20;;;2.10;;
6985;SDS011;3533;51.246;6.850;2022-08-27T05:44:53;2.23;;;2.03;;
6985;SDS011;3533;51.246;6.850;2022-08-27T05:47:19;2.53;;;2.43;;
6985;SDS011;3533;51.246;6.850;2022-08-27T05:49:45;2.17;;;2.07;;
6985;SDS011;3533;51.246;6.850;2022-08-27T05:52:10;2.57;;;2.37;;
6985;SDS011;3533;51.246;6.850;2022-08-27T05:54:37;3.10;;;2.00;;
6985;SDS011;3533;51.246;6.850;2022-08-27T05:57:03;1.90;;;1.80;;
6985;SDS011;3533;51.246;6.850;2022-08-27T05:59:29;2.37;;;2.27;;
6985;SDS011;3533;51.246;6.850;2022-08-27T06:02:13;2.03;;;1.77;;
6985;SDS011;3533;51.246;6.850;2022-08-27T06:04:39;2.47;;;2.37;;
6985;SDS011;3533;51.246;6.850;2022-08-27T06:07:06;2.00;;;1.90;;
6985;SDS011;3533;51.246;6.850;2022-08-27T06:09:33;2.07;;;1.90;;
6985;SDS011;3533;51.246;6.850;2022-08-27T06:11:59;1.90;;;1.80;;
6985;SDS011;3533;51.246;6.850;2022-08-27T06:14:25;2.00;;;1.90;;
6985;SDS011;3533;51.246;6.850;2022-08-27T06:16:51;2.37;;;2.27;;
6985;SDS011;3533;51.246;6.850;2022-08-27T06:19:16;2.30;;;2.03;;
6985;SDS011;3533;51.246;6.850;2022-08-27T06:21:42;2.57;;;2.40;;
6985;SDS011;3533;51.246;6.850;2022-08-27T06:24:09;2.17;;;2.07;;
6985;SDS011;3533;51.246;6.850;2022-08-27T06:26:39;2.00;;;1.90;;
6985;SDS011;3533;51.246;6.850;2022-08-27T06:29:06;2.03;;;1.90;;
6985;SDS011;3533;51.246;6.850;2022-08-27T06:31:32;2.20;;;2.10;;
6985;SDS011;3533;51.246;6.850;2022-08-27T06:34:00;2.27;;;2.17;;
6985;SDS011;3533;51.246;6.850;2022-08-27T06:36:27;6.30;;;2.60;;
6985;SDS011;3533;51.246;6.850;2022-08-27T06:38:53;2.50;;;2.30;;
6985;SDS011;3533;51.246;6.850;2022-08-27T06:41:21;2.60;;;2.40;;
6985;SDS011;3533;51.246;6.850;2022-08-27T06:43:48;2.30;;;2.20;;
6985;SDS011;3533;51.246;6.850;2022-08-27T06:46:16;2.80;;;2.30;;
6985;SDS011;3533;51.246;6.850;2022-08-27T06:48:44;2.50;;;2.40;;
6985;SDS011;3533;51.246;6.850;2022-08-27T06:51:21;2.80;;;2.60;;
6985;SDS011;3533;51.246;6.850;2022-08-27T06:53:50;2.60;;;2.43;;
6985;SDS011;3533;51.246;6.850;2022-08-27T06:56:16;2.00;;;1.90;;
6985;SDS011;3533;51.246;6.850;2022-08-27T06:58:43;2.57;;;2.47;;
6985;SDS011;3533;51.246;6.850;2022-08-27T07:01:17;2.73;;;2.00;;
6985;SDS011;3533;51.246;6.850;2022-08-27T07:03:44;3.00;;;2.77;;
6985;SDS011;3533;51.246;6.850;2022-08-27T07:06:11;2.37;;;2.27;;
6985;SDS011;3533;51.246;6.850;2022-08-27T07:08:38;2.30;;;2.20;;
6985;SDS011;3533;51.246;6.850;2022-08-27T07:11:05;2.27;;;2.17;;
6985;SDS011;3533;51.246;6.850;2022-08-27T07:13:32;2.30;;;2.20;;
6985;SDS011;3533;51.246;6.850;2022-08-27T07:16:02;2.30;;;2.10;;
6985;SDS011;3533;51.246;6.850;2022-08-27T07:18:30;2.40;;;2.30;;
6985;SDS011;3533;51.246;6.850;2022-08-27T07:20:55;2.90;;;2.70;;
6985;SDS011;3533;51.246;6.850;2022-08-27T07:23:21;3.60;;;2.20;;
6985;SDS011;3533;51.246;6.850;2022-08-27T07:25:46;2.50;;;2.40;;
6985;SDS011;3533;51.246;6.850;2022-08-27T07:28:12;4.07;;;2.00;;
6985;SDS011;3533;51.246;6.850;2022-08-27T07:30:38;2.50;;;2.40;;
6985;SDS011;3533;51.246;6.850;2022-08-27T07:33:04;2.63;;;2.53;;
6985;SDS011;3533;51.246;6.850;2022-08-27T07:35:30;2.40;;;2.27;;
6985;SDS011;3533;51.246;6.850;2022-08-27T07:37:55;2.83;;;2.73;;
6985;SDS011;3533;51.246;6.850;2022-08-27T07:40:22;2.10;;;2.00;;
6985;SDS011;3533;51.246;6.850;2022-08-27T07:42:48;2.20;;;2.10;;
6985;SDS011;3533;51.246;6.850;2022-08-27T07:45:32;2.33;;;2.20;;
6985;SDS011;3533;51.246;6.850;2022-08-27T07:47:58;2.23;;;2.13;;
6985;SDS011;3533;51.246;6.850;2022-08-27T07:50:24;2.40;;;2.20;;
6985;SDS011;3533;51.246;6.850;2022-08-27T07:52:50;2.43;;;2.23;;
6985;SDS011;3533;51.246;6.850;2022-08-27T07:55:16;2.17;;;2.07;;
6985;SDS011;3533;51.246;6.850;2022-08-27T07:57:42;2.43;;;2.23;;
6985;SDS011;3533;51.246;6.850;2022-08-27T08:00:09;2.40;;;2.30;;
6985;SDS011;3533;51.246;6.850;2022-08-27T08:02:36;2.63;;;2.40;;
6985;SDS011;3533;51.246;6.850;2022-08-27T08:05:03;2.40;;;2.30;;
6985;SDS011;3533;51.246;6.850;2022-08-27T08:07:30;2.97;;;2.77;;
6985;SDS011;3533;51.246;6.850;2022-08-27T08:09:57;2.70;;;2.20;;
6985;SDS011;3533;51.246;6.850;2022-08-27T08:12:23;2.40;;;2.30;;
6985;SDS011;3533;51.246;6.850;2022-08-27T08:14:49;2.20;;;2.10;;
6985;SDS011;3533;51.246;6.850;2022-08-27T08:17:19;1.90;;;1.80;;
6985;SDS011;3533;51.246;6.850;2022-08-27T08:19:45;2.30;;;1.97;;
6985;SDS011;3533;51.246;6.850;2022-08-27T08:22:14;2.27;;;2.17;;
6985;SDS011;3533;51.246;6.850;2022-08-27T08:24:40;2.10;;;2.00;;
6985;SDS011;3533;51.246;6.850;2022-08-27T08:27:05;2.80;;;2.60;;
6985;SDS011;3533;51.246;6.850;2022-08-27T08:29:31;2.40;;;2.20;;
6985;SDS011;3533;51.246;6.850;2022-08-27T08:31:56;2.07;;;1.97;;
6985;SDS011;3533;51.246;6.850;2022-08-27T08:34:22;2.00;;;1.90;;
6985;SDS011;3533;51.246;6.850;2022-08-27T08:36:47;2.60;;;2.40;;
6985;SDS011;3533;51.246;6.850;2022-08-27T08:39:13;2.50;;;2.40;;
6985;SDS011;3533;51.246;6.850;2022-08-27T08:41:39;2.30;;;2.13;;
6985;SDS011;3533;51.246;6.850;2022-08-27T08:44:34;2.17;;;2.07;;
6985;SDS011;3533;51.246;6.850;2022-08-27T08:47:14;2.40;;;2.20;;
6985;SDS011;3533;51.246;6.850;2022-08-27T08:50:07;2.63;;;2.43;;
6985;SDS011;3533;51.246;6.850;2022-08-27T08:52:53;2.23;;;1.97;;
6985;SDS011;3533;51.246;6.850;2022-08-27T08:55:40;2.17;;;2.07;;
6985;SDS011;3533;51.246;6.850;2022-08-27T09:00:43;2.70;;;2.60;;
6985;SDS011;3533;51.246;6.850;2022-08-27T09:03:13;2.90;;;2.70;;
6985;SDS011;3533;51.246;6.850;2022-08-27T09:05:42;2.90;;;2.70;;
6985;SDS011;3533;51.246;6.850;2022-08-27T09:08:23;2.57;;;2.37;;
6985;SDS011;3533;51.246;6.850;2022-08-27T09:13:36;2.90;;;2.70;;
6985;SDS011;3533;51.246;6.850;2022-08-27T09:16:05;2.80;;;2.60;;
6985;SDS011;3533;51.246;6.850;2022-08-27T09:18:32;2.30;;;2.20;;
6985;SDS011;3533;51.246;6.850;2022-08-27T09:26:52;2.70;;;2.50;;
6985;SDS011;3533;51.246;6.850;2022-08-27T09:29:18;2.70;;;2.50;;
6985;SDS011;3533;51.246;6.850;2022-08-27T09:31:45;2.70;;;2.33;;
6985;SDS011;3533;51.246;6.850;2022-08-27T09:34:23;2.33;;;2.23;;
6985;SDS011;3533;51.246;6.850;2022-08-27T09:36:53;2.00;;;1.90;;
6985;SDS011;3533;51.246;6.850;2022-08-27T09:39:24;2.20;;;2.10;;
6985;SDS011;3533;51.246;6.850;2022-08-27T09:41:55;2.37;;;2.27;;
6985;SDS011;3533;51.246;6.850;2022-08-27T09:44:22;2.10;;;1.90;;
6985;SDS011;3533;51.246;6.850;2022-08-27T09:46:55;2.40;;;2.20;;
6985;SDS011;3533;51.246;6.850;2022-08-27T09:49:23;2.40;;;2.20;;
6985;SDS011;3533;51.246;6.850;2022-08-27T09:51:49;2.57;;;2.47;;
6985;SDS011;3533;51.246;6.850;2022-08-27T09:54:36;2.43;;;2.33;;
6985;SDS011;3533;51.246;6.850;2022-08-27T09:57:08;2.40;;;2.20;;
6985;SDS011;3533;51.246;6.850;2022-08-27T09:59:37;2.10;;;2.00;;
6985;SDS011;3533;51.246;6.850;2022-08-27T10:04:44;2.43;;;2.30;;
6985;SDS011;3533;51.246;6.850;2022-08-27T10:10:25;2.73;;;2.53;;
6985;SDS011;3533;51.246;6.850;2022-08-27T10:13:08;2.80;;;2.60;;
6985;SDS011;3533;51.246;6.850;2022-08-27T10:15:52;2.23;;;2.13;;
6985;SDS011;3533;51.246;6.850;2022-08-27T10:21:51;2.73;;;2.53;;
6985;SDS011;3533;51.246;6.850;2022-08-27T10:38:20;2.60;;;2.40;;
6985;SDS011;3533;51.246;6.850;2022-08-27T10:52:05;2.80;;;2.60;;
6985;SDS011;3533;51.246;6.850;2022-08-27T11:00:06;5.23;;;2.60;;
6985;SDS011;3533;51.246;6.850;2022-08-27T11:02:41;3.60;;;2.47;;
6985;SDS011;3533;51.246;6.850;2022-08-27T11:07:43;3.00;;;2.80;;
6985;SDS011;3533;51.246;6.850;2022-08-27T11:10:27;4.00;;;2.53;;
6985;SDS011;3533;51.246;6.850;2022-08-27T11:12:57;2.87;;;2.60;;
6985;SDS011;3533;51.246;6.850;2022-08-27T11:15:29;4.87;;;2.73;;
6985;SDS011;3533;51.246;6.850;2022-08-27T11:26:11;2.57;;;2.40;;
6985;SDS011;3533;51.246;6.850;2022-08-27T11:28:38;2.73;;;2.53;;
6985;SDS011;3533;51.246;6.850;2022-08-27T11:31:28;2.30;;;2.20;;
6985;SDS011;3533;51.246;6.850;2022-08-27T11:36:33;3.47;;;2.27;;
6985;SDS011;3533;51.246;6.850;2022-08-27T11:42:46;2.30;;;2.10;;
6985;SDS011;3533;51.246;6.850;2022-08-27T11:45:20;2.77;;;2.10;;
6985;SDS011;3533;51.246;6.850;2022-08-27T11:47:57;2.47;;;2.37;;
6985;SDS011;3533;51.246;6.850;2022-08-27T11:50:27;2.33;;;2.13;;
6985;SDS011;3533;51.246;6.850;2022-08-27T11:53:02;2.73;;;2.53;;
6985;SDS011;3533;51.246;6.850;2022-08-27T11:55:34;2.57;;;2.47;;
6985;SDS011;3533;51.246;6.850;2022-08-27T12:00:41;2.93;;;2.73;;
6985;SDS011;3533;51.246;6.850;2022-08-27T12:03:21;2.90;;;2.20;;
6985;SDS011;3533;51.246;6.850;2022-08-27T12:13:54;2.50;;;2.40;;
6985;SDS011;3533;51.246;6.850;2022-08-27T12:24:42;2.20;;;2.10;;
6985;SDS011;3533;51.246;6.850;2022-08-27T12:38:22;2.13;;;2.03;;
6985;SDS011;3533;51.246;6.850;2022-08-27T12:40:47;2.00;;;1.90;;
6985;SDS011;3533;51.246;6.850;2022-08-27T12:43:24;2.90;;;2.00;;
6985;SDS011;3533;51.246;6.850;2022-08-27T12:45:56;2.20;;;1.70;;
6985;SDS011;3533;51.246;6.850;2022-08-27T12:48:29;2.07;;;1.97;;
6985;SDS011;3533;51.246;6.850;2022-08-27T12:51:02;2.10;;;2.00;;
6985;SDS011;3533;51.246;6.850;2022-08-27T12:53:40;2.53;;;2.33;;
6985;SDS011;3533;51.246;6.850;2022-08-27T12:58:51;1.87;;;1.73;;
6985;SDS011;3533;51.246;6.850;2022-08-27T13:04:43;2.33;;;2.23;;
6985;SDS011;3533;51.246;6.850;2022-08-27T13:07:10;2.17;;;2.07;;
6985;SDS011;3533;51.246;6.850;2022-08-27T13:09:37;2.00;;;1.90;;
6985;SDS011;3533;51.246;6.850;2022-08-27T13:12:05;1.83;;;1.73;;
6985;SDS011;3533;51.246;6.850;2022-08-27T13:14:43;2.60;;;2.43;;
6985;SDS011;3533;51.246;6.850;2022-08-27T13:17:17;1.80;;;1.70;;
6985;SDS011;3533;51.246;6.850;2022-08-27T13:19:48;2.03;;;1.83;;
6985;SDS011;3533;51.246;6.850;2022-08-27T13:22:35;1.73;;;1.63;;
6985;SDS011;3533;51.246;6.850;2022-08-27T13:25:03;3.97;;;2.10;;
6985;SDS011;3533;51.246;6.850;2022-08-27T13:27:31;2.50;;;1.87;;
6985;SDS011;3533;51.246;6.850;2022-08-27T13:30:04;1.80;;;1.70;;
6985;SDS011;3533;51.246;6.850;2022-08-27T13:32:32;1.97;;;1.87;;
6985;SDS011;3533;51.246;6.850;2022-08-27T13:34:59;1.93;;;1.60;;
6985;SDS011;3533;51.246;6.850;2022-08-27T13:37:27;1.90;;;1.80;;
6985;SDS011;3533;51.246;6.850;2022-08-27T13:40:24;1.93;;;1.83;;
6985;SDS011;3533;51.246;6.850;2022-08-27T13:42:54;1.87;;;1.77;;
6985;SDS011;3533;51.246;6.850;2022-08-27T13:45:22;2.40;;;2.20;;
6985;SDS011;3533;51.246;6.850;2022-08-27T13:47:47;1.70;;;1.60;;
6985;SDS011;3533;51.246;6.850;2022-08-27T13:50:21;2.80;;;1.70;;
6985;SDS011;3533;51.246;6.850;2022-08-27T13:52:49;1.80;;;1.70;;
6985;SDS011;3533;51.246;6.850;2022-08-27T13:55:37;2.03;;;1.93;;
6985;SDS011;3533;51.246;6.850;2022-08-27T13:58:17;1.90;;;1.80;;
6985;SDS011;3533;51.246;6.850;2022-08-27T14:00:47;2.00;;;1.90;;
6985;SDS011;3533;51.246;6.850;2022-08-27T14:03:24;2.07;;;1.80;;
6985;SDS011;3533;51.246;6.850;2022-08-27T14:05:54;1.80;;;1.70;;
6985;SDS011;3533;51.246;6.850;2022-08-27T14:08:21;1.73;;;1.63;;
6985;SDS011;3533;51.246;6.850;2022-08-27T14:13:36;51.23;;;4.67;;
6985;SDS011;3533;51.246;6.850;2022-08-27T14:16:39;2.43;;;1.80;;
6985;SDS011;3533;51.246;6.850;2022-08-27T14:19:08;2.10;;;1.90;;
6985;SDS011;3533;51.246;6.850;2022-08-27T14:21:37;2.60;;;1.90;;
6985;SDS011;3533;51.246;6.850;2022-08-27T14:24:05;4.03;;;2.07;;
6985;SDS011;3533;51.246;6.850;2022-08-27T14:26:31;2.70;;;1.90;;
6985;SDS011;3533;51.246;6.850;2022-08-27T14:28:58;1.90;;;1.80;;
6985;SDS011;3533;51.246;6.850;2022-08-27T14:31:24;1.80;;;1.70;;
6985;SDS011;3533;51.246;6.850;2022-08-27T14:33:51;2.40;;;1.70;;
6985;SDS011;3533;51.246;6.850;2022-08-27T14:36:18;2.83;;;2.50;;
6985;SDS011;3533;51.246;6.850;2022-08-27T14:38:45;1.80;;;1.70;;
6985;SDS011;3533;51.246;6.850;2022-08-27T14:41:13;1.80;;;1.70;;
6985;SDS011;3533;51.246;6.850;2022-08-27T14:43:39;3.00;;;2.07;;
6985;SDS011;3533;51.246;6.850;2022-08-27T14:46:05;2.57;;;1.90;;
6985;SDS011;3533;51.246;6.850;2022-08-27T14:48:35;1.90;;;1.80;;
6985;SDS011;3533;51.246;6.850;2022-08-27T14:51:07;1.70;;;1.60;;
6985;SDS011;3533;51.246;6.850;2022-08-27T14:53:36;1.90;;;1.80;;
6985;SDS011;3533;51.246;6.850;2022-08-27T14:56:02;2.90;;;2.10;;
6985;SDS011;3533;51.246;6.850;2022-08-27T14:58:28;1.80;;;1.70;;
6985;SDS011;3533;51.246;6.850;2022-08-27T15:00:54;2.90;;;1.87;;
6985;SDS011;3533;51.246;6.850;2022-08-27T15:03:21;1.83;;;1.73;;
6985;SDS011;3533;51.246;6.850;2022-08-27T15:05:53;2.53;;;2.00;;
6985;SDS011;3533;51.246;6.850;2022-08-27T15:08:21;3.10;;;1.90;;
6985;SDS011;3533;51.246;6.850;2022-08-27T15:10:49;1.70;;;1.60;;
6985;SDS011;3533;51.246;6.850;2022-08-27T15:13:15;6.07;;;2.00;;
6985;SDS011;3533;51.246;6.850;2022-08-27T15:15:41;2.20;;;2.10;;
6985;SDS011;3533;51.246;6.850;2022-08-27T15:18:07;1.67;;;1.57;;
6985;SDS011;3533;51.246;6.850;2022-08-27T15:20:33;2.33;;;2.00;;
6985;SDS011;3533;51.246;6.850;2022-08-27T15:23:00;1.80;;;1.70;;
6985;SDS011;3533;51.246;6.850;2022-08-27T15:25:27;1.77;;;1.67;;
6985;SDS011;3533;51.246;6.850;2022-08-27T15:27:53;1.83;;;1.73;;
6985;SDS011;3533;51.246;6.850;2022-08-27T15:30:21;1.80;;;1.70;;
6985;SDS011;3533;51.246;6.850;2022-08-27T15:32:49;2.00;;;1.90;;
6985;SDS011;3533;51.246;6.850;2022-08-27T15:35:17;5.17;;;1.93;;
6985;SDS011;3533;51.246;6.850;2022-08-27T15:37:49;2.00;;;1.90;;
6985;SDS011;3533;51.246;6.850;2022-08-27T15:40:15;1.80;;;1.70;;
6985;SDS011;3533;51.246;6.850;2022-08-27T15:42:42;1.80;;;1.70;;
6985;SDS011;3533;51.246;6.850;2022-08-27T15:45:09;1.80;;;1.70;;
6985;SDS011;3533;51.246;6.850;2022-08-27T15:47:37;1.90;;;1.80;;
6985;SDS011;3533;51.246;6.850;2022-08-27T15:50:03;2.40;;;2.30;;
6985;SDS011;3533;51.246;6.850;2022-08-27T15:52:29;1.90;;;1.80;;
6985;SDS011;3533;51.246;6.850;2022-08-27T15:54:54;1.73;;;1.63;;
6985;SDS011;3533;51.246;6.850;2022-08-27T15:57:20;1.87;;;1.77;;
6985;SDS011;3533;51.246;6.850;2022-08-27T15:59:46;2.03;;;1.90;;
6985;SDS011;3533;51.246;6.850;2022-08-27T16:02:17;2.10;;;1.90;;
6985;SDS011;3533;51.246;6.850;2022-08-27T16:04:44;2.30;;;1.50;;
6985;SDS011;3533;51.246;6.850;2022-08-27T16:07:11;1.83;;;1.73;;
6985;SDS011;3533;51.246;6.850;2022-08-27T16:09:37;1.77;;;1.67;;
6985;SDS011;3533;51.246;6.850;2022-08-27T16:12:03;1.97;;;1.87;;
6985;SDS011;3533;51.246;6.850;2022-08-27T16:14:28;2.60;;;1.70;;
6985;SDS011;3533;51.246;6.850;2022-08-27T16:16:54;1.80;;;1.70;;
6985;SDS011;3533;51.246;6.850;2022-08-27T16:19:21;1.80;;;1.70;;
6985;SDS011;3533;51.246;6.850;2022-08-27T16:21:48;1.90;;;1.80;;
6985;SDS011;3533;51.246;6.850;2022-08-27T16:24:15;2.03;;;1.93;;
6985;SDS011;3533;51.246;6.850;2022-08-27T16:26:41;1.90;;;1.80;;
6985;SDS011;3533;51.246;6.850;2022-08-27T16:29:06;1.90;;;1.80;;
6985;SDS011;3533;51.246;6.850;2022-08-27T16:31:33;2.00;;;1.90;;
6985;SDS011;3533;51.246;6.850;2022-08-27T16:34:01;1.70;;;1.60;;
6985;SDS011;3533;51.246;6.850;2022-08-27T16:36:27;1.70;;;1.60;;
6985;SDS011;3533;51.246;6.850;2022-08-27T16:38:54;1.90;;;1.80;;
6985;SDS011;3533;51.246;6.850;2022-08-27T16:41:20;1.70;;;1.60;;
6985;SDS011;3533;51.246;6.850;2022-08-27T16:43:47;1.63;;;1.53;;
6985;SDS011;3533;51.246;6.850;2022-08-27T16:46:13;1.60;;;1.47;;
6985;SDS011;3533;51.246;6.850;2022-08-27T16:48:39;1.70;;;1.60;;
6985;SDS011;3533;51.246;6.850;2022-08-27T16:51:30;1.80;;;1.70;;
6985;SDS011;3533;51.246;6.850;2022-08-27T16:53:57;1.80;;;1.70;;
6985;SDS011;3533;51.246;6.850;2022-08-27T16:56:24;1.73;;;1.63;;
6985;SDS011;3533;51.246;6.850;2022-08-27T16:58:50;1.80;;;1.70;;
6985;SDS011;3533;51.246;6.850;2022-08-27T17:01:17;1.70;;;1.60;;
6985;SDS011;3533;51.246;6.850;2022-08-27T17:03:46;1.70;;;1.60;;
6985;SDS011;3533;51.246;6.850;2022-08-27T17:06:14;1.73;;;1.63;;
6985;SDS011;3533;51.246;6.850;2022-08-27T17:08:40;1.70;;;1.60;;
6985;SDS011;3533;51.246;6.850;2022-08-27T17:11:08;1.80;;;1.70;;
6985;SDS011;3533;51.246;6.850;2022-08-27T17:13:35;1.80;;;1.70;;
6985;SDS011;3533;51.246;6.850;2022-08-27T17:16:03;1.80;;;1.70;;
6985;SDS011;3533;51.246;6.850;2022-08-27T17:18:33;1.60;;;1.50;;
6985;SDS011;3533;51.246;6.850;2022-08-27T17:20:59;1.70;;;1.60;;